Time;durP1;ratioP1;P1;durP2;ratioP2;P2;SDS_P1;SDS_P2;PMS_P1;PMS_P2;Temp;Humidity;BMP_temperature;BMP_pressure;BME280_temperature;BME280_humidity;BME280_pressure;Samples;Min_cycle;Max_cycle;Signal;HPM_P1;HPM_P2
2023/04/11 00:00:05;;;;;;;8.20;3.57;;;14.70;57.70;;;;;;5078332;28;21074;-62
2023/04/11 00:03:02;;;;;;;8.10;3.20;;;14.70;57.90;;;;;;5026795;28;20500;-62
2023/04/11 00:05:41;;;;;;;6.67;3.10;;;14.80;58.20;;;;;;5019945;28;20470;-62
2023/04/11 00:08:16;;;;;;;7.43;4.07;;;14.60;58.60;;;;;;5028763;28;20469;-62
2023/04/11 00:10:53;;;;;;;6.63;3.20;;;14.60;59.20;;;;;;5029001;28;20562;-63
2023/04/11 00:13:25;;;;;;;6.50;3.50;;;14.60;59.80;;;;;;5029664;28;20512;-62
2023/04/11 00:16:03;;;;;;;5.67;3.10;;;14.60;60.30;;;;;;5026427;28;20762;-63
2023/04/11 00:18:43;;;;;;;5.83;3.33;;;14.60;60.60;;;;;;5027538;28;20530;-62
2023/04/11 00:21:18;;;;;;;6.13;3.40;;;14.50;61.10;;;;;;5025603;28;21081;-62
2023/04/11 00:23:50;;;;;;;8.30;3.70;;;14.50;61.50;;;;;;5030035;28;21158;-62
2023/04/11 00:26:29;;;;;;;8.30;4.10;;;14.40;62.10;;;;;;5028461;28;20466;-62
2023/04/11 00:29:08;;;;;;;6.30;3.20;;;14.40;62.60;;;;;;5030213;28;20531;-62
2023/04/11 00:31:39;;;;;;;7.00;3.73;;;14.30;63.20;;;;;;5024466;28;20522;-62
2023/04/11 00:34:22;;;;;;;6.43;3.63;;;14.20;63.70;;;;;;5059212;28;20460;-62
2023/04/11 00:36:53;;;;;;;5.30;2.90;;;14.20;63.80;;;;;;5081679;28;20472;-63
2023/04/11 00:39:29;;;;;;;9.67;3.70;;;14.20;64.20;;;;;;5063743;28;20489;-62
2023/04/11 00:42:09;;;;;;;7.43;3.20;;;14.20;64.30;;;;;;5079368;28;20464;-62
2023/04/11 00:44:41;;;;;;;11.40;4.50;;;14.20;64.80;;;;;;5084230;28;20451;-62
2023/04/11 00:47:16;;;;;;;6.77;3.20;;;14.20;65.10;;;;;;5081813;28;21121;-62
2023/04/11 00:49:58;;;;;;;8.40;3.77;;;14.20;65.40;;;;;;5084537;28;20459;-62
2023/04/11 00:52:31;;;;;;;7.40;3.40;;;14.10;65.80;;;;;;5085629;28;20488;-64
2023/04/11 00:55:03;;;;;;;5.83;3.30;;;14.10;65.70;;;;;;5086465;28;20519;-63
2023/04/11 00:57:40;;;;;;;7.27;3.50;;;14.10;66.10;;;;;;5062577;28;20450;-63
2023/04/11 01:00:16;;;;;;;6.40;3.70;;;14.10;66.40;;;;;;5076713;28;20482;-63
2023/04/11 01:02:49;;;;;;;7.03;3.50;;;14.10;66.90;;;;;;5034192;28;20480;-63
2023/04/11 01:05:26;;;;;;;7.90;3.87;;;14.00;67.10;;;;;;5085560;28;20471;-63
2023/04/11 01:08:04;;;;;;;9.00;3.73;;;14.00;67.40;;;;;;5082717;28;20452;-62
2023/04/11 01:10:37;;;;;;;7.00;3.43;;;13.90;67.80;;;;;;5082717;28;20925;-64
2023/04/11 01:13:19;;;;;;;6.53;3.47;;;13.90;67.90;;;;;;5078336;28;21020;-62
2023/04/11 01:16:00;;;;;;;5.90;3.77;;;13.90;68.10;;;;;;5084295;28;20520;-65
2023/04/11 01:18:32;;;;;;;8.10;3.77;;;13.90;68.40;;;;;;5068740;28;20522;-63
2023/04/11 01:21:06;;;;;;;7.10;3.90;;;13.80;68.70;;;;;;5064995;28;20459;-64
2023/04/11 01:23:53;;;;;;;6.40;3.43;;;13.80;69.00;;;;;;5085273;28;20924;-64
2023/04/11 01:26:30;;;;;;;6.97;4.23;;;13.80;69.40;;;;;;5063094;28;20543;-62
2023/04/11 01:29:11;;;;;;;6.93;4.40;;;13.80;69.30;;;;;;5087138;28;20507;-62
2023/04/11 01:31:48;;;;;;;7.70;4.20;;;13.70;69.80;;;;;;5060186;28;20564;-62
2023/04/11 01:34:22;;;;;;;6.00;3.83;;;13.70;70.10;;;;;;5061851;28;20469;-63
2023/04/11 01:36:54;;;;;;;6.10;4.00;;;13.70;70.20;;;;;;5083178;28;20788;-62
2023/04/11 01:39:39;;;;;;;6.20;3.83;;;13.60;70.40;;;;;;5082209;28;20549;-62
2023/04/11 01:45:07;;;;;;;11.80;4.80;;;13.60;70.80;;;;;;5062787;28;20473;-63
2023/04/11 01:47:41;;;;;;;5.53;3.50;;;13.60;71.20;;;;;;5071222;28;20464;-62
2023/04/11 01:50:16;;;;;;;9.17;4.20;;;13.60;71.20;;;;;;5083429;28;20448;-63
2023/04/11 01:52:49;;;;;;;6.70;3.97;;;13.60;71.50;;;;;;5063761;28;20504;-62
2023/04/11 01:55:20;;;;;;;8.27;4.10;;;13.60;71.70;;;;;;5067880;28;20482;-62
2023/04/11 01:57:52;;;;;;;6.50;3.70;;;13.60;71.80;;;;;;5066308;28;20476;-64
2023/04/11 02:00:27;;;;;;;7.80;4.20;;;13.50;71.90;;;;;;5056147;28;20463;-64
2023/04/11 02:03:08;;;;;;;9.00;3.83;;;13.50;72.40;;;;;;5075032;28;20476;-64
2023/04/11 02:05:39;;;;;;;6.27;4.00;;;13.50;72.40;;;;;;5083314;28;20463;-63
2023/04/11 02:08:09;;;;;;;8.10;3.83;;;13.50;72.50;;;;;;5079471;28;20449;-63
2023/04/11 02:10:41;;;;;;;8.80;4.60;;;13.50;72.70;;;;;;5068468;28;20453;-63
2023/04/11 02:13:26;;;;;;;6.90;4.10;;;13.50;73.00;;;;;;5067093;28;20487;-63
2023/04/11 02:16:07;;;;;;;7.67;3.93;;;13.40;73.00;;;;;;5075648;28;20443;-63
2023/04/11 02:18:38;;;;;;;6.60;3.33;;;13.40;73.30;;;;;;5079126;28;20564;-63
2023/04/11 02:21:16;;;;;;;7.13;4.00;;;13.40;73.30;;;;;;5077466;28;20487;-63
2023/04/11 02:24:01;;;;;;;6.73;3.50;;;13.40;73.50;;;;;;5067893;28;20457;-63
2023/04/11 02:26:40;;;;;;;5.23;3.23;;;13.40;73.60;;;;;;5079965;28;20477;-63
2023/04/11 02:29:18;;;;;;;6.10;3.20;;;13.40;73.80;;;;;;5067838;28;21242;-62
2023/04/11 02:31:52;;;;;;;5.03;2.70;;;13.40;73.80;;;;;;5077436;28;20484;-62
2023/04/11 02:34:36;;;;;;;5.33;2.77;;;13.40;73.90;;;;;;5081341;28;20476;-62
2023/04/11 02:37:10;;;;;;;6.37;2.40;;;13.40;74.00;;;;;;5081536;28;20562;-63
2023/04/11 02:39:41;;;;;;;5.30;2.27;;;13.40;74.10;;;;;;5081649;28;20458;-63
2023/04/11 02:42:24;;;;;;;5.40;2.97;;;13.30;74.10;;;;;;5064659;28;20456;-63
2023/04/11 02:45:04;;;;;;;3.77;1.63;;;13.30;74.20;;;;;;5069013;28;20533;-62
2023/04/11 02:47:38;;;;;;;4.77;2.17;;;13.20;74.20;;;;;;5082790;28;20462;-62
2023/04/11 02:50:14;;;;;;;5.73;1.80;;;13.20;74.20;;;;;;5074556;28;20567;-63
2023/04/11 02:52:52;;;;;;;7.00;2.33;;;13.20;74.30;;;;;;5058961;28;20461;-62
2023/04/11 02:55:27;;;;;;;5.27;2.30;;;13.20;74.30;;;;;;5087028;28;20804;-63
2023/04/11 02:58:07;;;;;;;4.20;1.80;;;13.10;74.70;;;;;;5072670;28;20839;-63
2023/04/11 03:00:46;;;;;;;4.50;1.97;;;13.10;74.70;;;;;;5067370;28;20470;-63
2023/04/11 03:03:20;;;;;;;4.80;1.93;;;13.00;74.80;;;;;;5061792;28;20466;-63
2023/04/11 03:06:00;;;;;;;5.53;1.60;;;13.00;74.90;;;;;;5085759;28;20921;-63
2023/04/11 03:08:35;;;;;;;5.57;2.10;;;12.80;75.20;;;;;;5076357;28;20529;-63
2023/04/11 03:11:09;;;;;;;4.00;1.63;;;12.70;75.20;;;;;;5067193;28;20460;-63
2023/04/11 03:13:58;;;;;;;4.10;1.53;;;12.70;75.20;;;;;;5083956;28;21073;-63
2023/04/11 03:16:38;;;;;;;6.60;1.73;;;12.60;75.30;;;;;;5067911;28;20460;-63
2023/04/11 03:19:13;;;;;;;5.73;1.60;;;12.50;75.40;;;;;;5068724;28;20993;-63
2023/04/11 03:21:44;;;;;;;6.20;1.87;;;12.50;75.40;;;;;;5068173;28;20784;-63
2023/04/11 03:24:24;;;;;;;3.70;1.27;;;12.50;75.40;;;;;;5068865;28;20533;-63
2023/04/11 03:27:05;;;;;;;5.27;1.60;;;12.50;75.40;;;;;;5082516;28;20474;-63
2023/04/11 03:29:55;;;;;;;4.43;1.70;;;12.50;75.60;;;;;;5068059;28;20460;-63
2023/04/11 03:32:48;;;;;;;8.30;2.10;;;12.50;75.40;;;;;;5082391;28;20556;-63
2023/04/11 03:35:27;;;;;;;3.70;1.33;;;12.40;75.40;;;;;;5083262;28;20473;-64
2023/04/11 03:38:08;;;;;;;6.87;1.30;;;12.40;75.40;;;;;;5081993;28;20463;-63
2023/04/11 03:40:47;;;;;;;3.37;0.90;;;12.40;75.40;;;;;;5079305;28;20472;-63
2023/04/11 03:43:27;;;;;;;3.53;1.23;;;12.40;75.30;;;;;;5080403;28;20947;-63
2023/04/11 03:46:09;;;;;;;4.07;1.20;;;12.30;75.20;;;;;;5063818;28;20456;-63
2023/04/11 03:48:56;;;;;;;3.40;1.30;;;12.30;75.10;;;;;;5062247;28;20543;-63
2023/04/11 03:51:35;;;;;;;8.00;1.70;;;12.20;75.20;;;;;;5082157;28;20522;-63
2023/04/11 03:54:08;;;;;;;3.63;1.20;;;12.20;75.20;;;;;;5078785;28;20499;-63
2023/04/11 03:56:40;;;;;;;4.80;1.23;;;12.20;75.20;;;;;;5066266;28;20461;-63
2023/04/11 03:59:22;;;;;;;4.20;1.40;;;12.30;75.10;;;;;;5066210;28;20473;-63
2023/04/11 04:02:09;;;;;;;5.23;1.30;;;12.30;75.10;;;;;;5079842;28;20545;-64
2023/04/11 04:04:54;;;;;;;3.77;1.30;;;12.30;75.10;;;;;;5083589;28;20459;-63
2023/04/11 04:07:31;;;;;;;4.03;1.27;;;12.20;75.10;;;;;;5065206;28;20482;-63
2023/04/11 04:10:28;;;;;;;5.43;1.20;;;12.10;75.10;;;;;;5082378;28;20619;-63
2023/04/11 04:13:03;;;;;;;4.57;1.37;;;12.10;75.20;;;;;;5077681;28;20520;-64
2023/04/11 04:15:41;;;;;;;6.83;1.27;;;12.10;75.20;;;;;;5081622;28;20959;-63
2023/04/11 04:18:20;;;;;;;5.00;1.43;;;12.10;75.10;;;;;;5080123;28;20464;-63
2023/04/11 04:20:57;;;;;;;4.50;1.03;;;12.10;75.10;;;;;;5083340;28;20600;-63
2023/04/11 04:23:37;;;;;;;5.93;1.17;;;12.10;74.90;;;;;;5081672;28;21183;-63
2023/04/11 04:26:42;;;;;;;3.43;0.97;;;12.00;75.00;;;;;;5081177;28;20457;-63
2023/04/11 04:29:37;;;;;;;5.03;1.17;;;12.00;74.90;;;;;;5083552;28;20491;-63
2023/04/11 04:32:19;;;;;;;3.50;1.10;;;12.00;74.90;;;;;;5077603;28;21030;-64
2023/04/11 04:35:03;;;;;;;4.20;1.03;;;12.00;74.90;;;;;;5082599;28;20806;-63
2023/04/11 04:37:44;;;;;;;5.17;1.40;;;11.90;74.80;;;;;;5080987;28;20467;-63
2023/04/11 04:40:30;;;;;;;7.13;1.20;;;11.90;74.90;;;;;;5082399;28;20507;-64
2023/04/11 04:43:10;;;;;;;3.90;1.17;;;11.90;75.00;;;;;;5084800;28;20446;-63
2023/04/11 04:45:55;;;;;;;7.33;1.20;;;11.90;75.00;;;;;;5080791;28;20511;-63
2023/04/11 04:48:59;;;;;;;6.70;1.13;;;11.90;75.00;;;;;;5081746;28;20470;-63
2023/04/11 04:51:39;;;;;;;8.73;1.47;;;11.80;75.00;;;;;;5067405;28;20466;-63
2023/04/11 04:54:12;;;;;;;6.03;1.13;;;11.80;74.90;;;;;;5060263;28;20474;-63
2023/04/11 04:56:44;;;;;;;4.23;1.00;;;11.70;75.00;;;;;;5064809;28;20473;-64
2023/04/11 04:59:25;;;;;;;4.90;1.00;;;11.70;75.10;;;;;;5069330;28;20457;-63
2023/04/11 05:02:08;;;;;;;4.23;1.17;;;11.70;75.10;;;;;;5081146;28;20511;-63
2023/04/11 05:04:44;;;;;;;3.53;1.07;;;11.60;75.20;;;;;;5081088;28;20459;-63
2023/04/11 05:07:22;;;;;;;5.03;1.20;;;11.60;75.20;;;;;;5084122;28;20474;-63
2023/04/11 05:09:52;;;;;;;4.23;1.00;;;11.60;75.30;;;;;;5084280;28;20813;-63
2023/04/11 05:12:29;;;;;;;5.17;1.00;;;11.50;75.40;;;;;;5087962;28;20458;-63
2023/04/11 05:15:11;;;;;;;4.50;1.03;;;11.50;75.40;;;;;;5080976;28;20947;-63
2023/04/11 05:17:50;;;;;;;3.00;0.90;;;11.50;75.50;;;;;;5082204;28;21270;-63
2023/04/11 05:20:23;;;;;;;5.00;1.03;;;11.50;75.60;;;;;;5085244;28;20623;-63
2023/04/11 05:23:10;;;;;;;3.50;1.13;;;11.50;75.60;;;;;;5080263;28;20457;-63
2023/04/11 05:25:51;;;;;;;3.73;0.93;;;11.40;75.80;;;;;;5085453;28;20462;-63
2023/04/11 05:31:17;;;;;;;6.77;1.13;;;11.40;75.80;;;;;;5069229;28;20543;-63
2023/04/11 05:33:56;;;;;;;5.20;0.83;;;11.50;75.80;;;;;;5061784;28;20456;-63
2023/04/11 05:36:37;;;;;;;5.33;1.20;;;11.50;75.80;;;;;;5063639;28;20672;-64
2023/04/11 05:39:13;;;;;;;4.40;1.13;;;11.40;75.80;;;;;;5069189;28;20789;-64
2023/04/11 05:41:44;;;;;;;3.33;0.90;;;11.40;75.80;;;;;;5065846;28;21019;-63
2023/04/11 05:44:26;;;;;;;3.00;0.70;;;11.30;75.90;;;;;;5076154;28;20995;-63
2023/04/11 05:46:55;;;;;;;4.70;1.73;;;11.30;75.90;;;;;;5063203;28;20475;-63
2023/04/11 05:49:26;;;;;;;4.07;1.00;;;11.30;75.90;;;;;;5071771;28;20472;-63
2023/04/11 05:51:58;;;;;;;3.33;0.93;;;11.30;75.80;;;;;;5053803;28;20920;-63
2023/04/11 05:54:39;;;;;;;4.33;1.10;;;11.20;75.80;;;;;;5083350;28;20570;-63
2023/04/11 05:57:17;;;;;;;6.73;1.30;;;11.30;75.90;;;;;;5079343;28;20449;-63
2023/04/11 05:59:51;;;;;;;3.67;1.07;;;11.30;75.80;;;;;;5083199;28;20457;-63
2023/04/11 06:02:23;;;;;;;6.50;1.10;;;11.30;75.60;;;;;;5077824;28;20547;-63
2023/04/11 06:05:04;;;;;;;4.93;1.23;;;11.30;75.60;;;;;;5080674;28;20453;-63
2023/04/11 06:07:46;;;;;;;7.03;1.17;;;11.20;75.60;;;;;;5080869;28;20512;-63
2023/04/11 06:10:33;;;;;;;3.83;1.20;;;11.20;75.60;;;;;;5078549;28;20904;-63
2023/04/11 06:13:06;;;;;;;4.80;1.17;;;11.20;75.60;;;;;;5077744;28;20450;-63
2023/04/11 06:15:47;;;;;;;4.60;1.07;;;11.20;75.60;;;;;;5082668;28;20487;-63
2023/04/11 06:18:27;;;;;;;5.87;1.40;;;11.30;75.60;;;;;;5078499;28;20834;-63
2023/04/11 06:21:07;;;;;;;6.07;1.40;;;11.30;75.60;;;;;;5077057;28;20505;-63
2023/04/11 06:23:41;;;;;;;4.50;1.33;;;11.40;75.30;;;;;;5077480;28;20834;-63
2023/04/11 06:26:22;;;;;;;4.40;1.27;;;11.40;75.30;;;;;;5077837;28;20477;-64
2023/04/11 06:29:03;;;;;;;6.07;1.53;;;11.40;75.30;;;;;;5076963;28;20479;-63
2023/04/11 06:31:34;;;;;;;5.60;1.87;;;11.40;75.30;;;;;;5074239;28;21256;-63
2023/04/11 06:36:59;;;;;;;5.10;1.70;;;11.50;75.30;;;;;;5079826;28;20492;-63
2023/04/11 06:39:39;;;;;;;8.30;1.50;;;11.60;75.30;;;;;;5077869;28;20462;-63
2023/04/11 06:42:17;;;;;;;6.03;1.60;;;11.60;75.20;;;;;;5075280;28;20455;-63
2023/04/11 06:45:03;;;;;;;6.50;1.60;;;11.60;75.10;;;;;;5078956;28;20459;-63
2023/04/11 06:47:43;;;;;;;10.77;1.90;;;11.60;75.10;;;;;;5078712;28;20849;-63
2023/04/11 06:50:17;;;;;;;9.30;1.90;;;11.60;75.10;;;;;;5083424;28;20894;-63
2023/04/11 06:52:48;;;;;;;8.17;2.00;;;11.60;75.20;;;;;;5080122;28;20532;-63
2023/04/11 06:55:28;;;;;;;7.97;1.70;;;11.70;75.10;;;;;;5079492;28;20454;-63
2023/04/11 06:58:02;;;;;;;10.20;2.00;;;11.80;75.00;;;;;;5076218;28;20474;-63
2023/04/11 07:00:36;;;;;;;6.93;1.40;;;11.90;75.00;;;;;;5075574;28;21347;-63
2023/04/11 07:03:12;;;;;;;9.63;2.00;;;11.90;74.90;;;;;;5075684;28;20542;-63
2023/04/11 07:05:47;;;;;;;6.93;1.80;;;11.80;74.90;;;;;;5076150;28;20600;-63
2023/04/11 07:08:16;;;;;;;7.77;1.87;;;11.90;74.90;;;;;;5078245;28;20512;-63
2023/04/11 07:10:49;;;;;;;8.70;1.70;;;11.90;74.90;;;;;;5075039;28;20458;-63
2023/04/11 07:13:28;;;;;;;7.00;1.80;;;11.90;74.70;;;;;;5078715;28;20492;-63
2023/04/11 07:16:07;;;;;;;13.60;1.63;;;11.90;74.50;;;;;;5078788;28;20792;-63
2023/04/11 07:18:41;;;;;;;8.83;2.07;;;11.90;74.70;;;;;;5077669;28;20484;-63
2023/04/11 07:21:15;;;;;;;5.87;1.63;;;11.90;74.70;;;;;;5079596;28;20569;-63
2023/04/11 07:23:45;;;;;;;6.17;1.33;;;12.00;74.60;;;;;;5080041;28;20453;-63
2023/04/11 07:26:22;;;;;;;10.97;1.90;;;12.00;74.70;;;;;;5076920;28;21281;-62
2023/04/11 07:28:59;;;;;;;11.37;1.40;;;12.10;74.40;;;;;;5080423;28;20805;-63
2023/04/11 07:31:32;;;;;;;8.40;1.87;;;12.10;74.30;;;;;;5080402;28;20482;-63
2023/04/11 07:34:16;;;;;;;8.87;1.93;;;12.10;74.30;;;;;;5082669;28;20759;-63
2023/04/11 07:36:59;;;;;;;8.53;1.70;;;12.10;74.20;;;;;;5083198;28;20490;-63
2023/04/11 07:39:32;;;;;;;6.00;1.73;;;12.10;74.20;;;;;;5082269;28;20459;-63
2023/04/11 07:42:04;;;;;;;8.10;2.03;;;12.20;74.20;;;;;;5084142;28;20449;-63
2023/04/11 07:44:42;;;;;;;8.80;1.87;;;12.20;74.00;;;;;;5080874;28;20466;-63
2023/04/11 07:47:16;;;;;;;9.40;3.40;;;12.20;74.00;;;;;;5082710;28;20765;-63
2023/04/11 07:49:53;;;;;;;7.03;1.80;;;12.20;73.80;;;;;;5085670;28;21027;-63
2023/04/11 07:52:35;;;;;;;9.10;2.50;;;12.20;73.80;;;;;;5082484;28;20520;-63
2023/04/11 07:55:07;;;;;;;8.80;1.60;;;12.20;73.80;;;;;;5083983;28;20445;-63
2023/04/11 07:57:37;;;;;;;6.40;2.13;;;12.30;74.00;;;;;;5081791;28;20558;-63
2023/04/11 08:00:24;;;;;;;8.70;1.50;;;12.30;74.10;;;;;;5082637;28;20483;-63
2023/04/11 08:03:04;;;;;;;5.03;1.43;;;12.40;73.70;;;;;;5082026;28;20856;-63
2023/04/11 08:05:37;;;;;;;8.47;1.97;;;12.40;73.60;;;;;;5082060;28;20443;-63
2023/04/11 08:08:15;;;;;;;7.63;1.80;;;12.50;73.60;;;;;;5083913;28;20452;-63
2023/04/11 08:10:54;;;;;;;5.47;1.50;;;12.50;73.50;;;;;;5083070;28;20479;-64
2023/04/11 08:13:25;;;;;;;8.97;1.87;;;12.50;73.30;;;;;;5083728;28;20468;-63
2023/04/11 08:15:59;;;;;;;9.20;1.83;;;12.50;73.00;;;;;;5086616;28;20460;-64
2023/04/11 08:18:34;;;;;;;5.70;1.63;;;12.40;72.60;;;;;;5066296;28;20556;-64
2023/04/11 08:21:09;;;;;;;9.77;1.70;;;12.30;72.70;;;;;;5084934;28;20850;-64
2023/04/11 08:23:47;;;;;;;11.43;1.80;;;12.30;72.50;;;;;;5077942;28;20508;-64
2023/04/11 08:26:21;;;;;;;7.50;1.70;;;12.30;72.70;;;;;;5082654;28;20470;-64
2023/04/11 08:28:58;;;;;;;5.87;1.57;;;12.30;72.50;;;;;;5081155;28;20484;-63
2023/04/11 08:31:48;;;;;;;7.70;2.20;;;12.30;72.50;;;;;;5078315;28;20468;-64
2023/04/11 08:34:24;;;;;;;4.80;2.03;;;12.40;72.50;;;;;;5081914;28;20480;-65
2023/04/11 08:36:58;;;;;;;7.37;1.70;;;12.30;72.50;;;;;;5084412;28;20998;-63
2023/04/11 08:39:37;;;;;;;6.17;1.40;;;12.40;72.30;;;;;;5078571;28;20455;-62
2023/04/11 08:42:25;;;;;;;6.80;1.50;;;12.30;72.30;;;;;;5080825;28;20461;-63
2023/04/11 08:44:56;;;;;;;7.47;1.93;;;12.40;72.30;;;;;;5081813;28;20460;-62
2023/04/11 08:47:28;;;;;;;10.80;2.53;;;12.40;72.10;;;;;;5063306;28;20535;-62
2023/04/11 08:50:05;;;;;;;7.30;2.13;;;12.40;72.10;;;;;;5082433;28;20458;-63
2023/04/11 08:52:40;;;;;;;8.40;1.53;;;12.50;71.90;;;;;;5084685;28;21048;-62
2023/04/11 08:55:15;;;;;;;5.47;1.67;;;12.50;71.60;;;;;;5082767;28;20849;-63
2023/04/11 08:57:49;;;;;;;6.23;1.50;;;12.70;71.50;;;;;;5082469;28;20574;-62
2023/04/11 09:00:31;;;;;;;8.60;1.97;;;12.70;71.30;;;;;;5083872;28;20548;-62
2023/04/11 09:03:17;;;;;;;7.03;1.53;;;12.70;70.90;;;;;;5080628;28;20485;-62
2023/04/11 09:05:50;;;;;;;5.87;1.70;;;12.80;70.70;;;;;;5086831;28;20547;-65
2023/04/11 09:08:20;;;;;;;12.30;2.37;;;12.80;70.80;;;;;;5083021;28;20456;-62
2023/04/11 09:11:04;;;;;;;6.00;1.73;;;12.90;70.60;;;;;;5083637;28;20557;-62
2023/04/11 09:13:35;;;;;;;7.10;1.37;;;13.00;70.10;;;;;;5083557;28;20452;-62
2023/04/11 09:16:20;;;;;;;6.80;1.67;;;13.00;70.20;;;;;;5081162;28;20460;-62
2023/04/11 09:19:26;;;;;;;6.83;2.10;;;13.00;70.00;;;;;;5080372;28;20449;-62
2023/04/11 09:21:59;;;;;;;7.20;2.23;;;13.10;69.30;;;;;;5080809;28;20530;-62
2023/04/11 09:24:32;;;;;;;4.97;1.60;;;13.00;69.40;;;;;;5086459;28;20468;-62
2023/04/11 09:27:18;;;;;;;8.70;1.73;;;12.80;69.20;;;;;;5082233;28;20446;-65
2023/04/11 09:29:56;;;;;;;6.63;1.77;;;12.70;68.50;;;;;;5080110;28;20462;-62
2023/04/11 09:32:32;;;;;;;7.50;1.67;;;12.70;68.80;;;;;;5072108;28;20475;-63
2023/04/11 09:35:27;;;;;;;8.30;2.13;;;12.80;68.90;;;;;;5081022;28;20543;-63
2023/04/11 09:38:08;;;;;;;6.17;1.50;;;12.90;68.50;;;;;;5081497;28;20884;-63
2023/04/11 09:40:43;;;;;;;7.00;1.63;;;12.90;68.00;;;;;;5081992;28;20475;-63
2023/04/11 09:46:17;;;;;;;5.90;1.30;;;13.00;68.10;;;;;;5083667;28;20464;-63
2023/04/11 09:48:53;;;;;;;8.53;1.80;;;13.00;67.60;;;;;;5077695;28;20466;-63
2023/04/11 09:51:31;;;;;;;8.53;2.07;;;13.00;67.60;;;;;;5078361;28;20464;-63
2023/04/11 09:54:10;;;;;;;7.07;2.03;;;13.10;67.20;;;;;;5082673;28;20458;-63
2023/04/11 09:56:46;;;;;;;10.10;1.70;;;13.20;67.20;;;;;;5066135;28;20569;-63
2023/04/11 09:59:17;;;;;;;4.90;1.40;;;13.20;66.70;;;;;;5080742;28;20453;-63
2023/04/11 10:01:51;;;;;;;6.97;1.40;;;13.10;66.30;;;;;;5075009;28;20526;-62
2023/04/11 10:04:24;;;;;;;8.27;1.73;;;13.00;66.40;;;;;;5069997;28;20542;-63
2023/04/11 10:07:13;;;;;;;8.73;2.30;;;13.00;66.50;;;;;;5079096;28;20470;-63
2023/04/11 10:09:56;;;;;;;5.93;1.53;;;13.00;66.60;;;;;;5081259;28;20471;-63
2023/04/11 10:12:34;;;;;;;5.50;1.43;;;13.10;66.70;;;;;;5078825;28;20463;-63
2023/04/11 10:15:10;;;;;;;5.40;1.20;;;13.20;66.80;;;;;;5078075;28;21145;-63
2023/04/11 10:17:40;;;;;;;7.13;1.30;;;13.20;66.70;;;;;;5078804;28;20476;-63
2023/04/11 10:20:42;;;;;;;8.53;2.20;;;13.00;66.00;;;;;;5080916;28;21078;-63
2023/04/11 10:23:27;;;;;;;6.73;1.83;;;12.80;65.80;;;;;;5076678;28;20465;-63
2023/04/11 10:26:03;;;;;;;6.00;1.63;;;12.40;67.00;;;;;;5080930;28;20518;-63
2023/04/11 10:28:39;;;;;;;7.93;1.67;;;12.00;67.70;;;;;;5081151;28;20454;-63
2023/04/11 10:31:15;;;;;;;10.27;1.57;;;12.00;68.00;;;;;;5075135;28;20477;-63
2023/04/11 10:34:30;;;;;;;8.03;1.90;;;11.90;68.30;;;;;;5076255;28;20463;-63
2023/04/11 10:37:08;;;;;;;8.10;2.03;;;12.00;68.70;;;;;;5080622;28;20476;-63
2023/04/11 10:40:14;;;;;;;6.73;1.43;;;12.00;68.80;;;;;;5082540;28;20464;-63
2023/04/11 10:42:46;;;;;;;12.60;2.07;;;12.10;69.00;;;;;;5078275;28;20461;-63
2023/04/11 10:45:38;;;;;;;6.10;1.40;;;12.20;69.00;;;;;;5081115;28;21299;-63
2023/04/11 10:48:14;;;;;;;10.33;2.10;;;12.20;69.30;;;;;;5078654;28;20531;-63
2023/04/11 10:50:49;;;;;;;7.53;1.80;;;12.30;69.40;;;;;;5079945;28;20453;-63
2023/04/11 10:53:37;;;;;;;10.23;1.67;;;12.40;69.50;;;;;;5078988;28;20450;-63
2023/04/11 10:56:54;;;;;;;13.47;1.90;;;12.50;69.70;;;;;;5083255;28;20460;-63
2023/04/11 11:00:15;;;;;;;7.50;1.53;;;12.50;69.80;;;;;;5083284;28;20492;-63
2023/04/11 11:02:46;;;;;;;10.30;1.73;;;12.50;70.10;;;;;;4976768;28;20484;-62
2023/04/11 11:05:45;;;;;;;10.83;1.97;;;12.50;70.50;;;;;;4983455;28;21035;-62
2023/04/11 11:08:32;;;;;;;6.93;1.80;;;12.60;70.20;;;;;;4982992;28;20569;-63
2023/04/11 11:11:08;;;;;;;8.40;1.83;;;12.70;69.80;;;;;;4982506;28;20453;-63
2023/04/11 11:13:45;;;;;;;8.73;1.57;;;12.80;69.70;;;;;;4984748;28;20497;-63
2023/04/11 11:16:21;;;;;;;10.03;2.23;;;12.90;69.50;;;;;;4977284;28;20984;-62
2023/04/11 11:19:01;;;;;;;4.80;1.10;;;12.90;69.00;;;;;;4981970;28;21064;-63
2023/04/11 11:21:44;;;;;;;8.80;2.07;;;13.00;68.80;;;;;;4979257;28;20813;-62
2023/04/11 11:24:14;;;;;;;6.00;1.60;;;13.00;68.70;;;;;;4978889;28;20475;-63
2023/04/11 11:26:53;;;;;;;6.57;1.73;;;13.20;68.40;;;;;;4966452;28;20475;-63
2023/04/11 11:29:39;;;;;;;6.97;1.47;;;13.20;68.00;;;;;;4984050;28;20520;-63
2023/04/11 11:32:27;;;;;;;5.97;1.17;;;13.30;67.20;;;;;;4983272;28;20488;-63
2023/04/11 11:34:57;;;;;;;8.70;1.70;;;13.30;67.50;;;;;;5082996;28;21020;-62
2023/04/11 11:37:32;;;;;;;8.93;1.77;;;13.40;67.30;;;;;;5083547;28;20864;-62
2023/04/11 11:40:11;;;;;;;6.27;1.00;;;13.30;67.40;;;;;;5080220;28;20924;-62
2023/04/11 11:45:48;;;;;;;4.80;1.43;;;13.30;67.40;;;;;;5084397;28;20460;-64
2023/04/11 11:48:24;;;;;;;4.40;1.10;;;13.30;67.40;;;;;;5081994;28;20467;-64
2023/04/11 11:50:58;;;;;;;5.57;1.00;;;13.30;67.50;;;;;;5081724;28;20457;-63
2023/04/11 11:53:47;;;;;;;4.93;1.10;;;13.40;67.50;;;;;;5081638;28;21402;-64
2023/04/11 11:56:21;;;;;;;5.50;1.03;;;13.40;67.40;;;;;;5079567;28;20476;-64
2023/04/11 11:59:05;;;;;;;5.97;1.20;;;13.40;67.20;;;;;;5081975;28;20496;-62
2023/04/11 12:01:44;;;;;;;4.87;1.27;;;13.40;67.10;;;;;;5084472;28;20469;-63
2023/04/11 12:04:21;;;;;;;5.50;1.10;;;13.40;66.90;;;;;;5082598;28;20453;-63
2023/04/11 12:06:59;;;;;;;8.80;1.37;;;13.30;66.90;;;;;;5082295;28;20495;-63
2023/04/11 12:09:38;;;;;;;4.43;1.30;;;13.30;66.90;;;;;;5063979;28;20456;-63
2023/04/11 12:12:13;;;;;;;4.70;1.20;;;13.20;66.30;;;;;;5085572;28;20560;-63
2023/04/11 12:14:57;;;;;;;6.47;1.27;;;13.10;66.00;;;;;;5085190;28;20943;-64
2023/04/11 12:17:37;;;;;;;6.83;1.60;;;12.90;65.50;;;;;;5082812;28;20468;-63
2023/04/11 12:20:14;;;;;;;4.23;0.90;;;13.00;66.20;;;;;;5064160;28;20487;-63
2023/04/11 12:22:53;;;;;;;7.40;1.13;;;13.00;66.40;;;;;;5082942;28;20461;-64
2023/04/11 12:25:30;;;;;;;6.33;1.73;;;13.00;66.30;;;;;;5082591;28;20462;-63
2023/04/11 12:28:15;;;;;;;5.97;1.17;;;13.10;66.40;;;;;;5086518;28;20449;-64
2023/04/11 12:30:53;;;;;;;7.50;2.10;;;13.20;66.40;;;;;;5085305;28;20488;-63
2023/04/11 12:33:29;;;;;;;5.80;2.40;;;13.30;66.50;;;;;;5067250;28;20475;-64
2023/04/11 12:36:00;;;;;;;5.90;1.60;;;13.30;66.60;;;;;;5025587;28;20444;-65
2023/04/11 12:38:35;;;;;;;8.63;1.57;;;13.30;66.60;;;;;;5084033;28;20488;-64
2023/04/11 12:41:08;;;;;;;4.00;1.40;;;13.40;66.60;;;;;;5080312;28;20939;-64
2023/04/11 12:44:02;;;;;;;6.80;1.87;;;13.40;66.80;;;;;;5068494;28;20922;-65
2023/04/11 12:46:38;;;;;;;4.87;1.30;;;13.50;66.80;;;;;;5081011;28;20470;-64
2023/04/11 12:49:16;;;;;;;6.73;2.00;;;13.50;66.90;;;;;;5083880;28;20979;-63
2023/04/11 12:51:48;;;;;;;6.83;1.60;;;13.60;66.80;;;;;;5083261;28;20924;-64
2023/04/11 12:54:26;;;;;;;10.30;2.00;;;13.70;66.50;;;;;;5079702;28;20479;-64
2023/04/11 12:56:56;;;;;;;6.63;1.33;;;13.70;66.20;;;;;;5083660;28;20808;-64
2023/04/11 12:59:30;;;;;;;6.07;1.03;;;13.70;66.00;;;;;;5083157;28;20503;-64
2023/04/11 13:02:09;;;;;;;5.30;1.10;;;13.80;65.80;;;;;;5071034;28;20565;-64
2023/04/11 13:04:55;;;;;;;7.70;1.00;;;13.80;65.40;;;;;;5080989;28;20464;-62
2023/04/11 13:07:34;;;;;;;4.17;0.90;;;13.80;65.20;;;;;;5083515;28;20926;-64
2023/04/11 13:10:07;;;;;;;7.00;1.90;;;13.80;64.90;;;;;;5082511;28;20456;-64
2023/04/11 13:12:43;;;;;;;4.20;1.10;;;13.90;64.70;;;;;;5079801;28;20474;-63
2023/04/11 13:15:24;;;;;;;6.07;1.70;;;13.90;64.30;;;;;;5083589;28;20958;-62
2023/04/11 13:18:06;;;;;;;4.60;0.90;;;13.90;64.10;;;;;;5084333;28;20475;-63
2023/04/11 13:20:45;;;;;;;5.20;1.30;;;13.90;63.90;;;;;;5081526;28;20551;-62
2023/04/11 13:23:18;;;;;;;4.60;1.13;;;13.90;63.60;;;;;;5080239;28;20455;-63
2023/04/11 13:25:47;;;;;;;6.77;1.03;;;13.90;63.60;;;;;;5080207;28;20468;-62
2023/04/11 13:28:20;;;;;;;7.50;1.40;;;13.90;63.30;;;;;;5081190;28;20910;-63
2023/04/11 13:30:58;;;;;;;5.23;1.07;;;14.00;63.40;;;;;;5086035;28;20491;-62
2023/04/11 13:33:36;;;;;;;4.70;0.70;;;14.00;63.30;;;;;;5081240;28;20464;-62
2023/04/11 13:36:17;;;;;;;6.33;1.03;;;14.00;63.10;;;;;;5080599;28;20503;-63
2023/04/11 13:38:49;;;;;;;5.37;1.20;;;14.10;63.00;;;;;;5078553;28;20789;-62
2023/04/11 13:41:21;;;;;;;5.70;1.70;;;14.10;62.70;;;;;;5082362;28;20525;-62
2023/04/11 13:43:53;;;;;;;5.83;1.20;;;14.20;62.40;;;;;;5082233;28;20446;-63
2023/04/11 13:46:24;;;;;;;5.10;1.00;;;14.20;62.40;;;;;;5083965;28;20461;-62
2023/04/11 13:49:01;;;;;;;5.70;1.10;;;14.20;62.30;;;;;;5080418;28;20525;-62
2023/04/11 13:51:33;;;;;;;7.17;1.20;;;14.30;62.10;;;;;;5080484;28;20469;-62
2023/04/11 13:54:15;;;;;;;4.50;1.27;;;14.30;61.90;;;;;;5078296;28;20471;-62
2023/04/11 13:56:47;;;;;;;4.73;1.20;;;14.40;61.50;;;;;;5077851;28;20472;-63